»·PEaware :: KLM691 KSFO-KSNA

KLM691 :: KSFO-KSNA

FLIGHT INFORMATION

Flight Status: Arrived
Operator:
KLM
More flights by this operator :: More flights under this callsign
Pilot: Thomas N. (7419)
Aircraft: AIRBUS A330-200
(A332)
More flights by this aircraft type
Origin: KSFO San Francisco Intl
United States
Destination: KSNA John Wayne-Orange Co
United States
More flights between these airports :: More routes between these airports
Route: +OFFSH9 SXC
File this flight plan on PilotEdge
Remarks:
Altitude:
(Current/Filed)
0ft
Speed:
(Current/Filed)
0kts
Departed: 16-Feb-16 01:08 PM
Arrived: 16-Feb-16 02:19 PM
Distance/Time
Traveled:
323nm/1:11
Distance/Time
To Go:
Arrived

Flight Plot

Page will automatically refresh every two minutes.


Map Options




Map Legend


Flown Route
Filed Route
Departure Airport
Arrival Airport
Navaid (VOR, NDB)
Fix

Horizontal Profiles

Position Reports

Time Latitude Longitude Heading Altitude Ground
Speed
16-Feb-16 12:34 37.617925 -122.390206 210 26ft 0kts
16-Feb-16 12:36 37.617925 -122.390206 210 26ft 0kts
16-Feb-16 12:37 37.617925 -122.390206 210 26ft 0kts
16-Feb-16 12:38 37.617925 -122.390206 210 26ft 0kts
16-Feb-16 12:39 37.617925 -122.390206 210 26ft 0kts
16-Feb-16 12:40 37.617925 -122.390206 210 26ft 0kts
16-Feb-16 12:41 37.617925 -122.390206 210 26ft 0kts
16-Feb-16 12:42 37.617925 -122.390206 210 26ft 0kts
16-Feb-16 12:43 37.618362 -122.389708 240 26ft 0kts
16-Feb-16 12:44 37.618388 -122.389456 310 26ft 0kts
16-Feb-16 12:45 37.618388 -122.389456 310 26ft 0kts
16-Feb-16 12:46 37.618388 -122.389456 310 26ft 0kts
16-Feb-16 12:47 37.618844 -122.390371 297 26ft 12kts
16-Feb-16 12:48 37.621110 -122.391824 29 26ft 8kts
16-Feb-16 12:49 37.622553 -122.389039 101 26ft 13kts
16-Feb-16 12:50 37.620825 -122.384846 118 26ft 19kts
16-Feb-16 12:51 37.617667 -122.379512 171 26ft 15kts
16-Feb-16 12:52 37.613139 -122.381935 206 26ft 18kts
16-Feb-16 12:53 37.610116 -122.383986 210 26ft 6kts
16-Feb-16 12:54 37.609398 -122.384232 192 26ft 0kts
16-Feb-16 12:55 37.609117 -122.384026 116 26ft 0kts
16-Feb-16 12:56 37.609271 -122.382053 27 26ft 0kts
16-Feb-16 12:57 37.609271 -122.382053 27 26ft 0kts
16-Feb-16 12:58 37.609271 -122.382053 27 26ft 0kts
16-Feb-16 12:59 37.609271 -122.382053 27 26ft 0kts
16-Feb-16 13:00 37.609271 -122.382053 27 26ft 0kts
16-Feb-16 13:01 37.609271 -122.382053 27 26ft 0kts
16-Feb-16 13:02 37.625600 -122.371307 26 216ft 170kts
16-Feb-16 13:03 37.676277 -122.365966 8 2323ft 257kts
16-Feb-16 13:04 37.722872 -122.417553 262 5225ft 266kts
16-Feb-16 13:05 37.666161 -122.477582 215 6336ft 276kts
16-Feb-16 13:06 37.604186 -122.535693 218 9396ft 288kts
16-Feb-16 13:07 37.535602 -122.601726 218 11202ft 347kts
16-Feb-16 13:08 37.453730 -122.680577 218 13809ft 382kts
16-Feb-16 13:09 37.349891 -122.686923 169 16665ft 410kts
16-Feb-16 13:10 37.236721 -122.653397 168 19368ft 429kts
16-Feb-16 13:11 37.118998 -122.618316 168 22016ft 443kts
16-Feb-16 13:12 36.996560 -122.581949 168 24212ft 462kts
16-Feb-16 13:13 36.881188 -122.550788 168 26715ft 462kts
16-Feb-16 13:14 36.753181 -122.517535 169 28320ft 483kts
16-Feb-16 13:15 36.618430 -122.482701 168 29695ft 505kts
16-Feb-16 13:16 36.482029 -122.447536 169 32238ft 496kts
16-Feb-16 13:17 36.370192 -122.361340 124 33017ft 499kts
16-Feb-16 13:18 36.297317 -122.249832 130 32987ft 499kts
16-Feb-16 13:19 36.207414 -122.118849 130 32990ft 499kts
16-Feb-16 13:20 36.117417 -121.988426 130 32992ft 499kts
16-Feb-16 13:21 36.027126 -121.857552 130 32991ft 499kts
16-Feb-16 13:22 35.937136 -121.727802 130 32991ft 499kts
16-Feb-16 13:23 35.846783 -121.598385 130 33003ft 495kts
16-Feb-16 13:24 35.757409 -121.470837 130 33025ft 488kts
16-Feb-16 13:25 35.668897 -121.345007 130 33031ft 487kts
16-Feb-16 13:26 35.580109 -121.219248 130 33031ft 487kts
16-Feb-16 13:27 35.489712 -121.095867 142 33015ft 488kts
16-Feb-16 13:28 35.375054 -121.004588 147 32976ft 495kts
16-Feb-16 13:29 35.258936 -120.913919 147 32971ft 496kts
16-Feb-16 13:30 35.142609 -120.822796 147 32971ft 496kts
16-Feb-16 13:31 35.026469 -120.732755 147 32974ft 496kts
16-Feb-16 13:32 34.909641 -120.642533 147 32955ft 499kts
16-Feb-16 13:33 34.791642 -120.551725 147 31902ft 501kts
16-Feb-16 13:34 34.673944 -120.461452 147 30845ft 502kts
16-Feb-16 13:35 34.555854 -120.371196 146 29792ft 502kts
16-Feb-16 13:36 34.440441 -120.283246 147 28574ft 482kts
16-Feb-16 13:37 34.328794 -120.198568 148 26602ft 465kts
16-Feb-16 13:38 34.238213 -120.107482 123 24777ft 453kts
16-Feb-16 13:39 34.171742 -119.980204 121 23507ft 444kts
16-Feb-16 13:40 34.108308 -119.854666 121 21976ft 434kts
16-Feb-16 13:41 34.046180 -119.732129 121 20201ft 422kts
16-Feb-16 13:42 33.985886 -119.612181 122 18039ft 413kts
16-Feb-16 13:43 33.926950 -119.495168 123 15459ft 407kts
16-Feb-16 13:44 33.868524 -119.379548 122 12870ft 401kts
16-Feb-16 13:45 33.812314 -119.268622 123 11535ft 379kts
16-Feb-16 13:46 33.759596 -119.164907 123 11023ft 351kts
16-Feb-16 13:47 33.708404 -119.064508 123 11023ft 354kts
16-Feb-16 13:48 33.656479 -118.962965 122 11040ft 360kts
16-Feb-16 13:49 33.613183 -118.878456 119 11075ft 356kts
16-Feb-16 13:50 33.592223 -118.769997 83 10525ft 328kts
16-Feb-16 13:51 33.599625 -118.665378 84 10090ft 310kts
16-Feb-16 13:52 33.606373 -118.571912 84 8564ft 284kts
16-Feb-16 13:53 33.613162 -118.481263 84 7050ft 282kts
16-Feb-16 13:54 33.620477 -118.389425 83 5083ft 268kts
16-Feb-16 13:55 33.627551 -118.306685 83 5039ft 243kts
16-Feb-16 13:56 33.634396 -118.225608 83 5033ft 245kts
16-Feb-16 13:57 33.641233 -118.143493 83 5026ft 248kts
16-Feb-16 13:58 33.676706 -118.075746 38 5022ft 244kts
16-Feb-16 13:59 33.720480 -118.033311 38 5020ft 204kts
16-Feb-16 14:00 33.764643 -117.990650 38 5020ft 204kts
16-Feb-16 14:01 33.808800 -117.948711 38 5020ft 202kts
16-Feb-16 14:02 33.853040 -117.907527 38 5020ft 200kts
16-Feb-16 14:03 33.892029 -117.870666 48 5017ft 198kts
16-Feb-16 14:04 33.902152 -117.807280 84 5025ft 196kts
16-Feb-16 14:05 33.907882 -117.741830 84 4803ft 197kts
16-Feb-16 14:06 33.897557 -117.681210 151 4663ft 198kts
16-Feb-16 14:07 33.857686 -117.711599 239 4262ft 183kts
16-Feb-16 14:08 33.829030 -117.759510 223 3500ft 171kts
16-Feb-16 14:09 33.789084 -117.798775 205 2568ft 184kts
16-Feb-16 14:10 33.748860 -117.822443 210 1393ft 145kts
16-Feb-16 14:11 33.714973 -117.843944 207 643ft 133kts
16-Feb-16 14:12 33.682536 -117.864535 207 112ft 137kts
16-Feb-16 14:13 33.669503 -117.871993 139 69ft 0kts
16-Feb-16 14:14 33.669034 -117.871153 76 69ft 7kts
16-Feb-16 14:15 33.672371 -117.867962 30 69ft 17kts
16-Feb-16 14:16 33.675399 -117.865647 28 69ft 9kts

Navigation Log

Ident Type
Flight plan parsing failed, navigation log unavailable